ORER/EBL METAR and TAF weather

Enter ICAO airport designator
Station Type Date Time Source
ORER METAR 2022/08/12 13:00 UTC NOAA

ORER 121300Z 22009KT CAVOK 42/09 Q1002


Station Type Date Time Source
ORER Decoded METAR 2022/08/12 13:00 UTC NOAA

Station name not available
Aug 12, 2022 - 09:00 AM EDT / 2022.08.12 1300 UTC
Wind: from the SW (220 degrees) at 10 MPH (9 KT):0
Visibility: greater than 7 mile(s):0
Temperature: 107 F (42 C)
Dew Point: 48 F (9 C)
Relative Humidity: 13%
Pressure (altimeter): 29.59 in. Hg (1002 hPa)
ob: ORER 121300Z 22009KT CAVOK 42/09 Q1002
cycle: 13

Station Type Date Time Source
ORER TAF 2022/08/12 12:45 UTC NOAA

TAF ORER 121100Z 1212/1312 25010KT 7000 NSC
BECMG 1222/1224 VRB02KT
BECMG 1308/1310 26008KT

Example: see airport list